createdAt,value
2019-03-26T00:02:39.533Z,0.40
2019-03-26T00:06:43.138Z,0.40
2019-03-26T00:10:46.724Z,0.40
2019-03-26T00:14:50.141Z,0.37
2019-03-26T00:18:53.815Z,0.50
2019-03-26T00:22:57.104Z,0.30
2019-03-26T00:27:00.452Z,0.50
2019-03-26T00:31:05.130Z,0.30
2019-03-26T00:35:08.517Z,0.53
2019-03-26T00:39:11.744Z,0.30
2019-03-26T00:43:15.277Z,0.47
2019-03-26T00:47:19.182Z,0.40
2019-03-26T00:51:22.622Z,0.43
2019-03-26T00:55:26.109Z,0.50
2019-03-26T00:59:29.685Z,0.63
2019-03-26T01:03:33.213Z,0.60
2019-03-26T01:07:36.821Z,0.50
2019-03-26T01:11:40.657Z,0.57
2019-03-26T01:15:44.395Z,0.40
2019-03-26T01:19:47.648Z,0.60
2019-03-26T01:23:51.085Z,0.57
2019-03-26T01:27:54.530Z,0.60
2019-03-26T01:31:58.918Z,0.30
2019-03-26T01:36:02.609Z,0.50
2019-03-26T01:40:07.372Z,0.60
2019-03-26T01:44:10.822Z,0.63
2019-03-26T01:48:14.403Z,0.47
2019-03-26T01:52:21.287Z,0.60
2019-03-26T01:56:24.805Z,0.80
2019-03-26T02:00:28.350Z,0.50
2019-03-26T02:04:31.953Z,0.50
2019-03-26T02:08:35.368Z,0.63
2019-03-26T02:12:38.954Z,0.97
2019-03-26T02:16:42.705Z,0.50
2019-03-26T02:20:48.108Z,0.50
2019-03-26T02:24:51.780Z,0.70
2019-03-26T02:28:55.492Z,0.43
2019-03-26T02:32:58.988Z,0.70
2019-03-26T02:37:02.545Z,0.57
2019-03-26T02:41:06.013Z,0.40
2019-03-26T02:45:09.939Z,0.50
2019-03-26T02:49:13.459Z,0.47
2019-03-26T02:53:17.386Z,0.60
2019-03-26T02:57:21.139Z,0.60
2019-03-26T03:01:24.745Z,0.53
2019-03-26T03:05:35.562Z,0.20
2019-03-26T03:09:33.527Z,0.50
2019-03-26T03:13:36.969Z,0.47
2019-03-26T03:17:40.427Z,0.57
2019-03-26T03:21:44.148Z,0.40
2019-03-26T03:25:47.659Z,0.40
2019-03-26T03:29:51.105Z,0.60
2019-03-26T03:33:54.925Z,0.67
2019-03-26T03:37:58.602Z,0.50
2019-03-26T03:42:02.510Z,0.53
2019-03-26T03:46:06.425Z,0.63
2019-03-26T03:50:11.893Z,0.50
2019-03-26T03:54:16.365Z,0.37
2019-03-26T03:58:22.398Z,0.63
2019-03-26T04:02:25.826Z,0.73
2019-03-26T04:06:29.429Z,0.50
2019-03-26T04:10:32.852Z,0.67
2019-03-26T04:14:37.553Z,0.47
2019-03-26T04:18:41.024Z,0.30
2019-03-26T04:22:46.443Z,0.60
2019-03-26T04:26:50.133Z,0.47
2019-03-26T04:30:53.782Z,0.60
2019-03-26T04:34:57.415Z,0.60
2019-03-26T04:39:01.068Z,0.50
2019-03-26T04:43:06.086Z,0.80
2019-03-26T04:47:09.645Z,0.97
2019-03-26T04:51:13.220Z,0.47
2019-03-26T04:55:16.744Z,0.47
2019-03-26T04:59:21.436Z,0.50
2019-03-26T05:03:25.264Z,0.83
2019-03-26T05:07:28.785Z,0.60
2019-03-26T05:11:32.343Z,0.87
2019-03-26T05:15:35.786Z,0.57
2019-03-26T05:19:39.381Z,0.70
2019-03-26T05:23:43.269Z,0.70
2019-03-26T05:27:46.773Z,0.83
2019-03-26T05:31:50.232Z,0.60
2019-03-26T05:35:53.802Z,0.80
2019-03-26T05:39:57.247Z,0.50
2019-03-26T05:44:00.808Z,0.90
2019-03-26T05:48:04.374Z,0.77
2019-03-26T05:52:07.969Z,0.73
2019-03-26T05:56:11.493Z,0.70
2019-03-26T06:00:22.843Z,0.50
2019-03-26T06:04:26.312Z,0.67
2019-03-26T06:08:29.890Z,0.63
2019-03-26T06:12:33.323Z,0.50
2019-03-26T06:16:38.556Z,0.40
2019-03-26T06:20:41.968Z,0.40
2019-03-26T06:24:45.858Z,0.63
2019-03-26T06:28:49.325Z,0.50
2019-03-26T06:32:52.882Z,0.70
2019-03-26T06:36:56.356Z,0.50
2019-03-26T06:40:59.941Z,0.47
2019-03-26T06:45:03.218Z,0.40
2019-03-26T06:49:06.548Z,0.87
2019-03-26T06:53:09.798Z,0.50
2019-03-26T06:57:13.100Z,0.50
2019-03-26T07:01:16.472Z,0.53
2019-03-26T07:05:19.823Z,0.30
2019-03-26T07:09:23.122Z,0.30
2019-03-26T07:13:26.586Z,0.40
2019-03-26T07:17:30.103Z,0.20
2019-03-26T07:21:33.669Z,0.40
2019-03-26T07:25:38.977Z,0.43
2019-03-26T07:29:43.569Z,0.40
2019-03-26T07:33:47.029Z,0.40
2019-03-26T07:37:50.574Z,0.57
2019-03-26T07:41:54.035Z,0.40
2019-03-26T07:45:57.513Z,0.40
2019-03-26T07:50:00.954Z,0.33
2019-03-26T07:54:04.643Z,0.47
2019-03-26T07:58:08.085Z,0.30
2019-03-26T08:02:11.539Z,0.20
2019-03-26T08:06:15.001Z,0.37
2019-03-26T08:10:18.574Z,0.30
2019-03-26T08:14:22.072Z,0.30
2019-03-26T08:18:25.979Z,0.20
2019-03-26T08:22:29.379Z,0.53
2019-03-26T08:26:33.014Z,0.47
2019-03-26T08:30:36.258Z,0.87
2019-03-26T08:34:39.544Z,0.47
2019-03-26T08:38:43.021Z,0.50
2019-03-26T08:42:46.677Z,0.20
2019-03-26T08:46:50.190Z,0.20
2019-03-26T08:50:53.759Z,0.20
2019-03-26T08:54:57.320Z,0.33
2019-03-26T08:59:00.871Z,0.37
2019-03-26T09:03:04.440Z,0.30
2019-03-26T09:07:11.084Z,0.30
2019-03-26T09:11:14.744Z,0.50
2019-03-26T09:15:18.399Z,0.30
2019-03-26T09:19:21.910Z,0.20
2019-03-26T09:23:25.526Z,0.40
2019-03-26T09:27:30.630Z,0.40
2019-03-26T09:31:34.175Z,0.13
2019-03-26T09:35:37.844Z,0.40
2019-03-26T09:39:42.877Z,0.40
2019-03-26T09:43:46.304Z,0.30
2019-03-26T09:47:49.911Z,0.30
2019-03-26T09:51:53.431Z,0.30
2019-03-26T09:55:57.765Z,0.40
2019-03-26T10:00:01.262Z,0.27
2019-03-26T10:04:04.880Z,0.40
2019-03-26T10:08:08.400Z,0.50
2019-03-26T10:12:11.956Z,0.30
2019-03-26T10:16:15.421Z,0.30
2019-03-26T10:20:19.000Z,0.50
2019-03-26T10:24:22.531Z,0.43
2019-03-26T10:28:26.225Z,0.43
2019-03-26T10:32:29.483Z,0.30
2019-03-26T10:36:32.950Z,0.30
2019-03-26T10:40:37.534Z,0.30
2019-03-26T10:44:40.856Z,0.40
2019-03-26T10:48:44.123Z,0.50
2019-03-26T10:52:47.441Z,0.47
2019-03-26T10:56:51.715Z,0.30
2019-03-26T11:00:55.148Z,0.40
2019-03-26T11:04:58.409Z,0.23
2019-03-26T11:09:01.731Z,0.30
2019-03-26T11:13:06.618Z,0.60
2019-03-26T11:17:09.948Z,0.30
2019-03-26T11:21:13.270Z,0.30
2019-03-26T11:25:17.093Z,0.40
2019-03-26T11:29:20.665Z,0.30
2019-03-26T11:33:24.047Z,0.30
2019-03-26T11:37:27.413Z,0.63
2019-03-26T11:41:30.755Z,0.20
2019-03-26T11:45:34.115Z,0.50
2019-03-26T11:49:37.480Z,0.40
2019-03-26T11:53:40.731Z,0.23
2019-03-26T11:57:44.034Z,0.57
2019-03-26T12:01:47.294Z,0.23
2019-03-26T12:05:50.635Z,0.43
2019-03-26T12:09:54.173Z,0.53
2019-03-26T12:13:57.592Z,0.30
2019-03-26T12:18:00.921Z,0.50
2019-03-26T12:22:04.248Z,0.30
2019-03-26T12:26:07.541Z,0.30
2019-03-26T12:30:13.289Z,0.33
2019-03-26T12:34:16.558Z,0.30
2019-03-26T12:38:23.437Z,0.30
2019-03-26T12:42:26.698Z,0.40
2019-03-26T12:46:30.047Z,0.37
2019-03-26T12:50:33.327Z,0.37
2019-03-26T12:54:36.699Z,0.30
2019-03-26T12:58:40.112Z,0.30
2019-03-26T13:02:43.498Z,0.30
2019-03-26T13:06:46.784Z,0.40
2019-03-26T13:10:53.874Z,0.60
2019-03-26T13:14:55.516Z,0.30
2019-03-26T13:18:58.907Z,0.30
2019-03-26T13:23:02.393Z,0.40
2019-03-26T13:27:05.725Z,0.33
2019-03-26T13:31:09.239Z,0.20
2019-03-26T13:35:13.138Z,0.30
2019-03-26T13:39:16.440Z,0.33
2019-03-26T13:43:19.811Z,0.40
2019-03-26T13:47:23.079Z,0.43
2019-03-26T13:51:28.122Z,0.43
2019-03-26T13:55:31.370Z,0.70
2019-03-26T13:59:34.750Z,0.37
2019-03-26T14:03:39.139Z,0.30
2019-03-26T14:07:42.474Z,0.30
2019-03-26T14:11:46.065Z,0.47
2019-03-26T14:15:49.444Z,0.40
2019-03-26T14:19:52.843Z,0.20
2019-03-26T14:23:58.348Z,0.40
2019-03-26T14:28:01.612Z,0.40
2019-03-26T14:32:05.021Z,0.20
2019-03-26T14:36:08.299Z,0.20
2019-03-26T14:40:12.058Z,0.30
2019-03-26T14:44:15.343Z,0.20
2019-03-26T14:48:18.718Z,0.40
2019-03-26T14:52:21.988Z,0.40
2019-03-26T14:56:25.325Z,0.40
2019-03-26T15:00:28.768Z,0.70
2019-03-26T15:04:32.081Z,0.33
2019-03-26T15:08:35.423Z,0.40
2019-03-26T15:12:39.005Z,0.33
2019-03-26T15:16:42.497Z,0.50
2019-03-26T15:20:45.920Z,0.40
2019-03-26T15:24:49.250Z,0.43
2019-03-26T15:28:54.219Z,0.30
2019-03-26T15:32:57.756Z,0.83
2019-03-26T15:37:01.107Z,1.63
2019-03-26T15:41:04.421Z,0.40
2019-03-26T15:45:09.064Z,0.33
2019-03-26T15:49:12.444Z,0.10
2019-03-26T15:53:17.290Z,0.40
2019-03-26T15:57:20.551Z,0.40
2019-03-26T16:01:24.651Z,0.23
2019-03-26T16:05:28.215Z,0.30
2019-03-26T16:09:31.602Z,0.53
2019-03-26T16:13:35.959Z,0.50
2019-03-26T16:17:39.475Z,0.23
2019-03-26T16:21:42.906Z,0.30
2019-03-26T16:25:46.302Z,0.30
2019-03-26T16:29:50.669Z,0.30
2019-03-26T16:33:55.825Z,0.20
2019-03-26T16:37:59.093Z,0.23
2019-03-26T16:42:02.457Z,0.40
2019-03-26T16:46:05.730Z,0.20
2019-03-26T16:50:09.514Z,0.30
2019-03-26T16:54:12.839Z,2.73
2019-03-26T16:58:16.390Z,3.53
2019-03-26T17:02:19.777Z,1.73
2019-03-26T17:06:25.045Z,2.77
2019-03-26T17:10:28.509Z,1.83
2019-03-26T17:14:40.496Z,3.30
2019-03-26T17:18:44.987Z,3.50
2019-03-26T17:22:48.963Z,2.57
2019-03-26T17:26:53.482Z,1.37
2019-03-26T17:30:57.126Z,1.10
2019-03-26T17:35:01.508Z,1.80
2019-03-26T17:39:09.192Z,1.30
2019-03-26T17:43:14.084Z,2.53
2019-03-26T17:47:18.823Z,0.50
2019-03-26T17:51:22.759Z,0.73
2019-03-26T17:55:26.463Z,1.37
2019-03-26T17:59:30.630Z,0.80
2019-03-26T18:03:34.440Z,0.50
2019-03-26T18:07:38.864Z,0.53
2019-03-26T18:11:42.583Z,1.40
2019-03-26T18:15:46.750Z,0.80
2019-03-26T18:19:51.270Z,0.50
2019-03-26T18:23:55.142Z,0.43
2019-03-26T18:27:59.725Z,0.43
2019-03-26T18:32:03.328Z,0.70
2019-03-26T18:36:07.229Z,0.83
2019-03-26T18:40:10.942Z,0.70
2019-03-26T18:44:15.648Z,0.70
2019-03-26T18:48:20.175Z,1.10
2019-03-26T18:52:24.254Z,2.10
2019-03-26T18:56:27.801Z,1.27
2019-03-26T19:00:39.567Z,1.23
2019-03-26T19:04:43.652Z,0.90
2019-03-26T19:08:47.258Z,0.57
2019-03-26T19:12:56.826Z,0.90
2019-03-26T19:16:56.364Z,0.97
2019-03-26T19:21:02.427Z,0.70
2019-03-26T19:25:06.435Z,0.70
2019-03-26T19:29:10.136Z,0.93
2019-03-26T19:33:14.286Z,1.20
2019-03-26T19:37:18.550Z,1.20
2019-03-26T19:41:22.188Z,1.30
2019-03-26T19:45:27.083Z,1.97
2019-03-26T19:49:31.709Z,0.90
2019-03-26T19:53:35.315Z,0.83
2019-03-26T19:57:38.935Z,1.27
2019-03-26T20:01:42.909Z,1.40
2019-03-26T20:05:46.599Z,0.93
2019-03-26T20:09:51.045Z,1.23
2019-03-26T20:13:55.621Z,1.10
2019-03-26T20:18:00.107Z,1.20
2019-03-26T20:22:04.537Z,0.80
2019-03-26T20:26:08.001Z,0.93
2019-03-26T20:30:12.445Z,0.90
2019-03-26T20:34:16.225Z,0.57
2019-03-26T20:38:22.114Z,0.90
2019-03-26T20:42:25.774Z,1.10
2019-03-26T20:46:30.166Z,0.93
2019-03-26T20:50:33.689Z,1.00
2019-03-26T20:54:38.375Z,0.90
2019-03-26T20:58:42.378Z,0.70
2019-03-26T21:02:45.987Z,0.70
2019-03-26T21:06:49.468Z,0.80
2019-03-26T21:10:53.650Z,0.50
2019-03-26T21:14:57.666Z,0.50
2019-03-26T21:19:01.220Z,0.40
2019-03-26T21:23:06.069Z,0.40
2019-03-26T21:27:09.633Z,0.40
2019-03-26T21:31:13.688Z,0.70
2019-03-26T21:35:18.322Z,1.10
2019-03-26T21:39:22.446Z,0.30
2019-03-26T21:43:26.128Z,0.40
2019-03-26T21:47:29.785Z,0.57
2019-03-26T21:51:33.440Z,0.50
2019-03-26T21:55:37.930Z,0.43
2019-03-26T21:59:42.330Z,0.73
2019-03-26T22:03:46.622Z,0.40
2019-03-26T22:07:50.179Z,0.60
2019-03-26T22:11:53.629Z,0.57
2019-03-26T22:15:58.938Z,0.70
2019-03-26T22:20:03.154Z,0.50
2019-03-26T22:24:06.877Z,0.37
2019-03-26T22:28:10.559Z,0.53
2019-03-26T22:32:14.412Z,0.73
2019-03-26T22:36:17.889Z,0.40
2019-03-26T22:40:22.131Z,0.60
2019-03-26T22:44:31.429Z,0.50
2019-03-26T22:48:30.986Z,0.40
2019-03-26T22:52:34.437Z,0.40
2019-03-26T22:56:38.026Z,0.80
2019-03-26T23:00:41.935Z,0.60
2019-03-26T23:04:47.233Z,0.63
2019-03-26T23:08:50.723Z,0.57
2019-03-26T23:12:54.304Z,0.57
2019-03-26T23:16:57.754Z,0.40
2019-03-26T23:21:01.410Z,0.70
2019-03-26T23:25:04.970Z,0.70
2019-03-26T23:29:09.568Z,1.10
2019-03-26T23:33:13.027Z,0.80
2019-03-26T23:37:16.744Z,0.97
2019-03-26T23:41:21.405Z,0.73
2019-03-26T23:45:25.068Z,0.70
2019-03-26T23:49:28.428Z,0.80
2019-03-26T23:53:31.985Z,0.80
2019-03-26T23:57:37.396Z,1.07
